Time;durP1;ratioP1;P1;durP2;ratioP2;P2;SDS_P1;SDS_P2;PMS_P1;PMS_P2;Temp;Humidity;BMP_temperature;BMP_pressure;BME280_temperature;BME280_humidity;BME280_pressure;Samples;Min_cycle;Max_cycle;Signal;HPM_P1;HPM_P2
2020/12/01 00:02:40;;;;;;;26.41;16.72;;;;;;;0.48;85.22;99556.84;1999197;81;20162;-84
2020/12/01 00:05:41;;;;;;;23.50;15.08;;;;;;;0.50;85.46;99549.22;1998554;81;20188;-81
2020/12/01 00:08:44;;;;;;;25.24;15.98;;;;;;;0.49;85.33;99544.94;1995163;81;20176;-82
2020/12/01 00:11:46;;;;;;;24.74;15.47;;;;;;;0.50;85.41;99528.78;1996019;81;20205;-83
2020/12/01 00:14:48;;;;;;;25.40;15.66;;;;;;;0.53;85.38;99519.56;1995730;81;20235;-82
2020/12/01 00:17:49;;;;;;;22.81;15.47;;;;;;;0.51;85.41;99516.06;1996318;81;20237;-82
2020/12/01 00:20:51;;;;;;;25.21;15.07;;;;;;;0.54;85.41;99520.44;1995460;81;20221;-81
2020/12/01 00:23:52;;;;;;;24.88;15.47;;;;;;;0.58;85.38;99512.09;1997812;81;20128;-80
2020/12/01 00:26:54;;;;;;;23.59;14.38;;;;;;;0.58;85.29;99517.19;1993406;81;20207;-80
2020/12/01 00:29:56;;;;;;;22.66;15.17;;;;;;;0.58;85.35;99509.53;1990289;81;20733;-81
2020/12/01 00:32:57;;;;;;;20.36;14.41;;;;;;;0.62;85.35;99505.41;2035811;70;20343;-72
2020/12/01 00:35:59;;;;;;;22.93;13.80;;;;;;;0.61;85.35;99509.63;1982699;81;20653;-72
2020/12/01 00:39:00;;;;;;;24.31;15.14;;;;;;;0.64;85.47;99493.53;1983567;81;20211;-72
2020/12/01 00:42:02;;;;;;;22.28;13.81;;;;;;;0.64;85.40;99486.75;1983827;80;20180;-72
2020/12/01 00:45:05;;;;;;;22.93;14.99;;;;;;;0.63;85.40;99505.44;1983123;81;20192;-72
2020/12/01 00:48:07;;;;;;;22.10;13.54;;;;;;;0.65;85.59;99503.81;1983817;81;20626;-72
2020/12/01 00:51:09;;;;;;;20.43;13.66;;;;;;;0.68;85.53;99508.16;1983854;80;20218;-73
2020/12/01 00:54:11;;;;;;;22.56;14.10;;;;;;;0.70;85.64;99502.28;1983421;81;20772;-72
2020/12/01 00:57:13;;;;;;;22.67;13.50;;;;;;;0.74;85.57;99503.31;1984347;81;20224;-73
2020/12/01 01:00:24;;;;;;;19.40;13.69;;;;;;;0.77;85.53;99496.59;1983728;81;20179;-72
2020/12/01 01:03:26;;;;;;;19.87;12.86;;;;;;;0.80;85.48;99485.63;1983844;81;20691;-73
2020/12/01 01:06:27;;;;;;;21.80;13.05;;;;;;;0.80;85.48;99483.06;1983725;81;20199;-72
2020/12/01 01:09:29;;;;;;;19.93;12.97;;;;;;;0.80;85.49;99471.16;1983032;81;20359;-72
2020/12/01 01:12:31;;;;;;;19.46;13.04;;;;;;;0.80;85.35;99467.72;1983331;81;20847;-72
2020/12/01 01:15:34;;;;;;;19.63;12.94;;;;;;;0.80;85.47;99462.63;1983244;81;20646;-72
2020/12/01 01:18:35;;;;;;;19.33;12.43;;;;;;;0.78;85.42;99459.16;1984063;81;20973;-71
2020/12/01 01:21:45;;;;;;;21.00;13.36;;;;;;;0.72;85.54;99459.81;1983161;81;20234;-72
2020/12/01 01:24:47;;;;;;;22.08;13.72;;;;;;;0.68;85.77;99455.38;1983550;81;20196;-72
2020/12/01 01:27:49;;;;;;;21.39;13.71;;;;;;;0.66;86.04;99449.34;1983932;81;20209;-71
2020/12/01 01:30:50;;;;;;;21.40;14.00;;;;;;;0.71;86.17;99444.38;1983521;81;20192;-72
2020/12/01 01:33:52;;;;;;;24.74;13.88;;;;;;;0.69;86.06;99436.66;1983472;81;20216;-72
2020/12/01 01:36:53;;;;;;;19.61;12.79;;;;;;;0.72;86.25;99435.91;1983317;81;20253;-71
2020/12/01 01:39:55;;;;;;;22.31;13.36;;;;;;;0.73;86.06;99438.53;1983653;81;20188;-71
2020/12/01 01:42:58;;;;;;;17.54;12.09;;;;;;;0.69;86.17;99429.00;1983881;81;20216;-72
2020/12/01 01:46:00;;;;;;;19.23;12.39;;;;;;;0.73;86.32;99430.00;1983319;81;20373;-71
2020/12/01 01:49:05;;;;;;;18.19;12.16;;;;;;;0.77;86.22;99427.59;1985430;81;20220;-71
2020/12/01 01:52:23;;;;;;;17.67;12.79;;;;;;;0.77;86.07;99424.19;1984341;81;20172;-71
2020/12/01 01:55:27;;;;;;;18.53;12.77;;;;;;;0.77;86.18;99417.38;1985030;81;20207;-71
2020/12/01 01:58:35;;;;;;;18.47;12.23;;;;;;;0.77;86.27;99412.28;1984585;81;20188;-71
2020/12/01 02:01:37;;;;;;;18.81;12.54;;;;;;;0.76;86.32;99404.56;1984796;81;20239;-71
2020/12/01 02:04:38;;;;;;;19.90;12.99;;;;;;;0.74;86.43;99407.06;1984474;81;20227;-71
2020/12/01 02:07:40;;;;;;;19.63;12.86;;;;;;;0.74;86.52;99398.53;1984966;81;20238;-71
2020/12/01 02:10:43;;;;;;;19.99;12.73;;;;;;;0.77;86.56;99402.06;1984084;81;20261;-71
2020/12/01 02:13:57;;;;;;;18.27;12.54;;;;;;;0.78;86.48;99380.78;1983885;81;20892;-71
2020/12/01 02:17:14;;;;;;;21.24;12.67;;;;;;;0.78;86.45;99387.59;1984338;81;20201;-71
2020/12/01 02:20:18;;;;;;;20.67;12.89;;;;;;;0.80;86.57;99370.63;1984505;81;20203;-71
2020/12/01 02:23:19;;;;;;;19.13;12.84;;;;;;;0.83;86.39;99379.25;1984001;81;20191;-71
2020/12/01 02:26:21;;;;;;;18.72;12.48;;;;;;;0.82;86.35;99376.66;1984883;81;20204;-71
2020/12/01 02:29:27;;;;;;;22.19;12.80;;;;;;;0.83;86.55;99365.59;1983807;81;20199;-71
2020/12/01 02:32:29;;;;;;;21.73;13.36;;;;;;;0.80;86.45;99363.81;1983927;81;20213;-71
2020/12/01 02:35:30;;;;;;;27.90;12.93;;;;;;;0.81;86.67;99362.13;1984283;81;20357;-71
2020/12/01 02:38:32;;;;;;;17.18;12.20;;;;;;;0.85;86.66;99348.63;1984228;81;20235;-71
2020/12/01 02:41:34;;;;;;;18.89;12.57;;;;;;;0.84;86.44;99349.44;1984457;81;20193;-71
2020/12/01 02:44:36;;;;;;;17.45;12.59;;;;;;;0.81;86.64;99336.56;1985008;81;20816;-71
2020/12/01 02:47:37;;;;;;;18.24;11.97;;;;;;;0.82;86.77;99343.44;1985125;81;21380;-71
2020/12/01 02:50:39;;;;;;;16.28;11.71;;;;;;;0.83;86.61;99346.03;1985841;81;20213;-71
2020/12/01 02:53:41;;;;;;;19.09;12.47;;;;;;;0.84;86.74;99329.00;1985507;81;20843;-71
2020/12/01 02:56:45;;;;;;;17.80;11.89;;;;;;;0.88;86.66;99328.28;1986232;81;20276;-71
2020/12/01 02:59:46;;;;;;;18.44;11.81;;;;;;;0.90;86.70;99324.13;1985759;81;20349;-71
2020/12/01 03:02:48;;;;;;;16.89;11.01;;;;;;;0.91;86.62;99323.28;1987046;81;20245;-71
2020/12/01 03:05:49;;;;;;;16.44;11.53;;;;;;;0.92;86.52;99329.28;1986522;81;20207;-71
2020/12/01 03:08:51;;;;;;;17.56;10.68;;;;;;;0.93;86.53;99318.22;1987394;81;20212;-71
2020/12/01 03:11:53;;;;;;;19.74;11.20;;;;;;;0.94;86.45;99325.09;1987603;80;20320;-71
2020/12/01 03:14:54;;;;;;;19.39;11.76;;;;;;;0.92;86.42;99313.94;1987622;81;20188;-71
2020/12/01 03:17:56;;;;;;;14.40;10.45;;;;;;;0.91;86.58;99315.63;1987105;81;20650;-71
2020/12/01 03:20:57;;;;;;;17.49;11.06;;;;;;;0.88;86.57;99310.38;1987492;80;20357;-71
2020/12/01 03:23:59;;;;;;;16.82;10.89;;;;;;;0.90;86.70;99301.97;1987342;81;20192;-71
2020/12/01 03:27:01;;;;;;;16.06;10.59;;;;;;;0.90;86.61;99301.97;1987830;81;20227;-71
2020/12/01 03:30:05;;;;;;;15.23;10.80;;;;;;;0.88;86.61;99298.47;1987395;81;20227;-71
2020/12/01 03:33:07;;;;;;;16.67;11.46;;;;;;;0.86;86.68;99289.91;1987373;80;20241;-71
2020/12/01 03:36:09;;;;;;;17.99;11.22;;;;;;;0.83;86.84;99282.13;1987400;81;20519;-71
2020/12/01 03:39:10;;;;;;;17.92;10.83;;;;;;;0.85;86.96;99284.75;1988008;81;20814;-71
2020/12/01 03:42:12;;;;;;;14.53;10.34;;;;;;;0.86;87.04;99292.47;1987689;81;21040;-71
2020/12/01 03:45:14;;;;;;;15.31;10.34;;;;;;;0.90;87.03;99275.56;1987164;81;20176;-71
2020/12/01 03:48:15;;;;;;;15.40;10.06;;;;;;;0.90;87.01;99270.44;1987922;81;20633;-71
2020/12/01 03:51:17;;;;;;;14.28;9.39;;;;;;;0.92;86.98;99273.91;1987791;81;20209;-71
2020/12/01 03:54:18;;;;;;;12.69;9.38;;;;;;;0.91;86.96;99259.41;1987688;81;20175;-71
2020/12/01 03:57:20;;;;;;;15.53;9.94;;;;;;;0.89;87.01;99267.00;1988316;81;20217;-71
2020/12/01 04:00:25;;;;;;;13.50;9.17;;;;;;;0.91;87.21;99264.50;1987165;81;20555;-71
2020/12/01 04:03:27;;;;;;;13.74;8.55;;;;;;;0.90;87.17;99261.09;1984927;81;20172;-71
2020/12/01 04:06:28;;;;;;;12.84;9.14;;;;;;;0.92;87.14;99260.28;1984473;81;20323;-71
2020/12/01 04:09:30;;;;;;;13.13;9.16;;;;;;;0.91;87.22;99256.84;1984386;81;20354;-71
2020/12/01 04:12:32;;;;;;;10.70;8.21;;;;;;;0.93;87.30;99260.31;1984497;81;20448;-71
2020/12/01 04:15:34;;;;;;;14.79;8.79;;;;;;;0.95;87.31;99260.34;1983779;81;20896;-71
2020/12/01 04:18:36;;;;;;;12.54;9.53;;;;;;;0.95;87.24;99256.13;1984277;81;20339;-71
2020/12/01 04:21:37;;;;;;;11.94;8.08;;;;;;;0.97;87.38;99245.94;1985341;81;20205;-71
2020/12/01 04:24:41;;;;;;;12.06;8.17;;;;;;;0.94;87.25;99239.03;1986131;81;20302;-71
2020/12/01 04:27:43;;;;;;;12.38;8.36;;;;;;;0.90;87.35;99247.44;1986592;81;20223;-71
2020/12/01 04:30:44;;;;;;;9.88;6.96;;;;;;;0.90;87.56;99242.34;1986850;81;20205;-71
2020/12/01 04:33:46;;;;;;;10.16;7.37;;;;;;;0.93;87.58;99239.00;1987435;81;20183;-71
2020/12/01 04:36:47;;;;;;;10.49;7.15;;;;;;;0.94;87.66;99245.84;1985957;81;20314;-71
2020/12/01 04:39:49;;;;;;;10.05;7.21;;;;;;;0.94;87.70;99241.59;1986588;81;20324;-71
2020/12/01 04:43:03;;;;;;;11.53;7.74;;;;;;;0.95;87.83;99245.88;1986549;81;20430;-71
2020/12/01 04:46:12;;;;;;;12.73;8.19;;;;;;;0.96;87.95;99239.97;1986613;81;20763;-71
2020/12/01 04:49:25;;;;;;;11.11;7.50;;;;;;;1.01;87.91;99237.53;1986778;81;20184;-71
2020/12/01 04:52:47;;;;;;;10.52;6.84;;;;;;;1.04;87.78;99243.59;1986506;81;20346;-71
2020/12/01 04:56:26;;;;;;;8.55;6.46;;;;;;;1.05;87.67;99236.81;1986793;81;20909;-71
2020/12/01 04:59:51;;;;;;;11.01;6.64;;;;;;;1.06;87.57;99235.97;1987467;81;20862;-71
2020/12/01 05:03:02;;;;;;;8.47;6.12;;;;;;;1.06;87.48;99234.28;1986411;81;20225;-71
2020/12/01 05:09:18;;;;;;;9.98;6.58;;;;;;;1.07;87.37;99236.03;1986151;81;20217;-71
2020/12/01 05:12:39;;;;;;;10.24;7.18;;;;;;;1.05;87.33;99227.44;1986819;81;20176;-71
2020/12/01 05:15:41;;;;;;;10.48;6.39;;;;;;;1.07;87.34;99222.38;1986644;81;20183;-72
2020/12/01 05:18:43;;;;;;;11.56;7.23;;;;;;;1.06;87.24;99229.16;1986793;81;20340;-71
2020/12/01 05:21:44;;;;;;;10.44;7.51;;;;;;;1.04;87.50;99238.50;1986662;81;20643;-71
2020/12/01 05:24:48;;;;;;;9.63;6.41;;;;;;;1.07;87.72;99236.03;1986687;81;20717;-72
2020/12/01 05:28:01;;;;;;;8.76;6.28;;;;;;;1.10;87.65;99241.25;1983722;81;20733;-71
2020/12/01 05:31:05;;;;;;;12.13;6.74;;;;;;;1.10;87.52;99233.59;1986194;81;20352;-71
2020/12/01 05:34:16;;;;;;;7.31;6.03;;;;;;;1.10;87.53;99232.72;1985489;81;20332;-71
2020/12/01 05:37:19;;;;;;;10.71;6.62;;;;;;;1.12;87.58;99228.50;1985295;81;20323;-72
2020/12/01 05:40:21;;;;;;;9.86;6.90;;;;;;;1.13;87.58;99220.88;1984306;80;20209;-72
2020/12/01 05:43:30;;;;;;;8.71;6.59;;;;;;;1.15;87.53;99223.50;1984675;81;20407;-71
2020/12/01 05:46:42;;;;;;;9.84;7.21;;;;;;;1.15;87.47;99223.50;1984630;81;20912;-72
2020/12/01 05:49:47;;;;;;;13.26;7.65;;;;;;;1.13;87.60;99223.44;1984175;81;20355;-72
2020/12/01 05:53:10;;;;;;;9.99;7.14;;;;;;;1.10;87.65;99213.13;1984146;81;20376;-72
2020/12/01 05:56:18;;;;;;;10.96;6.99;;;;;;;1.12;87.85;99208.94;1984015;81;20369;-72
2020/12/01 05:59:23;;;;;;;12.16;7.56;;;;;;;1.14;87.90;99217.50;1983751;81;20172;-72
2020/12/01 06:02:38;;;;;;;12.34;7.74;;;;;;;1.13;87.89;99210.66;1984158;81;20191;-72
2020/12/01 06:05:42;;;;;;;10.14;7.30;;;;;;;1.16;88.17;99209.88;1984187;81;20353;-72
2020/12/01 06:09:01;;;;;;;12.80;8.32;;;;;;;1.20;88.17;99206.59;1984428;81;20379;-72
2020/12/01 06:12:29;;;;;;;11.69;7.35;;;;;;;1.25;88.20;99209.28;1984963;81;20363;-72
2020/12/01 06:15:36;;;;;;;11.21;7.04;;;;;;;1.26;87.94;99208.44;1984468;81;20340;-72
2020/12/01 06:18:55;;;;;;;14.59;7.88;;;;;;;1.25;87.89;99211.81;1984219;81;20328;-72
2020/12/01 06:22:09;;;;;;;11.89;7.40;;;;;;;1.27;88.00;99211.06;1986664;81;20183;-72
2020/12/01 06:25:21;;;;;;;14.46;8.43;;;;;;;1.31;88.10;99201.78;1983473;81;20380;-72
2020/12/01 06:28:49;;;;;;;10.32;7.55;;;;;;;1.35;88.06;99208.72;1983890;81;20360;-72
2020/12/01 06:32:28;;;;;;;11.69;7.25;;;;;;;1.39;88.06;99211.41;1992419;80;20360;-72
2020/12/01 06:36:09;;;;;;;10.21;7.14;;;;;;;1.40;87.75;99212.28;1983638;81;20794;-72
2020/12/01 06:39:17;;;;;;;10.97;7.51;;;;;;;1.31;87.57;99212.91;1984944;81;20180;-72
2020/12/01 06:42:41;;;;;;;12.41;7.80;;;;;;;1.28;87.70;99217.06;1984539;81;20183;-72
2020/12/01 06:45:47;;;;;;;13.41;8.24;;;;;;;1.29;88.06;99206.88;1984660;81;20371;-71
2020/12/01 06:48:49;;;;;;;11.35;6.85;;;;;;;1.36;88.14;99203.66;1984645;81;20813;-71
2020/12/01 06:51:59;;;;;;;11.27;7.72;;;;;;;1.38;87.91;99211.38;1983810;81;20351;-71
2020/12/01 06:55:00;;;;;;;12.69;8.04;;;;;;;1.37;87.76;99207.94;1984393;81;20452;-71
2020/12/01 06:58:18;;;;;;;11.96;7.38;;;;;;;1.38;87.79;99207.13;1984230;81;20603;-72
2020/12/01 07:01:22;;;;;;;11.21;7.94;;;;;;;1.42;87.69;99214.06;1984172;81;20340;-71
2020/12/01 07:04:27;;;;;;;12.85;7.61;;;;;;;1.42;87.57;99215.75;1984504;81;20381;-71
2020/12/01 07:07:33;;;;;;;11.82;8.02;;;;;;;1.44;87.67;99220.09;1985427;81;20336;-72
2020/12/01 07:10:35;;;;;;;14.64;7.74;;;;;;;1.43;87.49;99213.22;1984290;81;20328;-71
2020/12/01 07:13:44;;;;;;;10.76;7.45;;;;;;;1.42;87.58;99215.75;1984460;81;20339;-72
2020/12/01 07:16:48;;;;;;;11.64;7.68;;;;;;;1.40;87.44;99215.69;1984243;81;20881;-71
2020/12/01 07:20:12;;;;;;;13.75;8.29;;;;;;;1.43;87.68;99223.47;1984510;81;20393;-72
2020/12/01 07:23:23;;;;;;;11.69;7.24;;;;;;;1.45;87.52;99219.28;1993161;80;20863;-72
2020/12/01 07:26:37;;;;;;;11.90;6.95;;;;;;;1.44;87.42;99229.47;1984362;81;20347;-72
2020/12/01 07:29:51;;;;;;;10.50;7.09;;;;;;;1.45;87.39;99226.97;1984362;81;20741;-72
2020/12/01 07:32:56;;;;;;;10.30;6.96;;;;;;;1.37;87.06;99219.88;1984800;81;20695;-73
2020/12/01 07:36:14;;;;;;;9.89;6.94;;;;;;;1.36;87.33;99221.56;1984315;81;20327;-74
2020/12/01 07:39:31;;;;;;;9.02;6.50;;;;;;;1.38;87.46;99221.59;1986200;81;20385;-73
2020/12/01 07:42:37;;;;;;;10.38;6.94;;;;;;;1.38;87.28;99219.91;1986080;81;20361;-73
2020/12/01 07:45:39;;;;;;;10.81;7.20;;;;;;;1.35;87.32;99224.06;1985796;81;20393;-74
2020/12/01 07:48:40;;;;;;;10.43;6.70;;;;;;;1.38;87.46;99219.91;1985153;81;20691;-73
2020/12/01 07:51:42;;;;;;;11.21;6.97;;;;;;;1.39;87.53;99221.66;1985779;81;20345;-73
2020/12/01 07:54:48;;;;;;;10.61;6.53;;;;;;;1.40;87.45;99220.81;1985628;81;21167;-73
2020/12/01 07:58:20;;;;;;;9.09;6.40;;;;;;;1.43;87.48;99223.47;1985294;81;20324;-74
2020/12/01 08:01:22;;;;;;;12.85;7.31;;;;;;;1.45;87.41;99223.53;1985882;80;20357;-72
2020/12/01 08:04:24;;;;;;;9.99;7.15;;;;;;;1.46;87.44;99226.13;1985249;81;20335;-73
2020/12/01 08:07:25;;;;;;;12.19;6.99;;;;;;;1.47;87.40;99227.00;1985744;81;20723;-73
2020/12/01 08:10:28;;;;;;;8.07;6.24;;;;;;;1.52;87.59;99233.09;1985278;81;20382;-72
2020/12/01 08:13:31;;;;;;;9.52;6.24;;;;;;;1.51;87.49;99239.06;1985189;81;20320;-72
2020/12/01 08:16:33;;;;;;;10.68;5.72;;;;;;;1.51;87.39;99234.81;1984875;81;20408;-72
2020/12/01 08:19:36;;;;;;;10.15;6.40;;;;;;;1.51;87.33;99242.47;1983750;81;20328;-72
2020/12/01 08:22:41;;;;;;;9.00;6.05;;;;;;;1.52;87.29;99240.78;1983919;81;20821;-72
2020/12/01 08:25:47;;;;;;;8.52;5.51;;;;;;;1.51;87.38;99239.91;1984176;81;20425;-71
2020/12/01 08:29:13;;;;;;;8.90;6.19;;;;;;;1.51;87.29;99234.81;1983959;81;20308;-72
2020/12/01 08:32:32;;;;;;;8.45;6.15;;;;;;;1.45;87.34;99241.44;1984646;81;20779;-72
2020/12/01 08:35:51;;;;;;;8.20;5.95;;;;;;;1.46;87.49;99236.38;1983857;81;20397;-72
2020/12/01 08:39:01;;;;;;;9.80;6.24;;;;;;;1.47;87.50;99240.66;1983807;81;20338;-72
2020/12/01 08:42:18;;;;;;;10.51;6.41;;;;;;;1.48;87.74;99242.38;1983717;81;20256;-72
2020/12/01 08:45:35;;;;;;;9.81;6.75;;;;;;;1.56;87.94;99246.84;1983793;81;20316;-72
2020/12/01 08:48:51;;;;;;;7.04;6.09;;;;;;;1.57;87.75;99253.69;1983926;81;20733;-72
2020/12/01 08:52:01;;;;;;;7.75;5.54;;;;;;;1.60;87.95;99251.22;1984409;81;20442;-71
2020/12/01 08:55:31;;;;;;;7.44;5.46;;;;;;;1.62;87.79;99253.03;1985083;81;20907;-71
2020/12/01 08:58:45;;;;;;;7.93;5.64;;;;;;;1.62;87.70;99259.84;1986230;81;20369;-71
2020/12/01 09:01:47;;;;;;;8.26;5.60;;;;;;;1.61;87.80;99251.25;1985523;81;20339;-71
2020/12/01 09:04:59;;;;;;;8.56;5.61;;;;;;;1.63;87.85;99251.34;1985969;81;20319;-71
2020/12/01 09:18:11;;;;;;;7.22;4.76;;;;;;;1.69;87.68;99243.81;1986685;81;20347;-70
2020/12/01 09:21:52;;;;;;;5.97;4.90;;;;;;;1.69;87.64;99247.25;1986992;81;20406;-71
2020/12/01 09:25:25;;;;;;;4.78;3.97;;;;;;;1.73;87.72;99245.63;1985745;81;20382;-71
2020/12/01 09:28:29;;;;;;;6.25;4.59;;;;;;;1.74;87.58;99240.56;1989608;80;20332;-71
2020/12/01 09:31:37;;;;;;;6.05;4.86;;;;;;;1.77;87.55;99242.34;1985199;81;20324;-71
2020/12/01 09:34:39;;;;;;;7.82;5.54;;;;;;;1.76;87.40;99240.59;1985720;81;20990;-71
2020/12/01 09:37:40;;;;;;;7.39;5.66;;;;;;;1.79;87.38;99236.44;1985718;81;20215;-71
2020/12/01 09:40:44;;;;;;;8.16;5.84;;;;;;;1.81;87.33;99231.38;1985924;81;20676;-71
2020/12/01 09:47:19;;;;;;;7.63;5.86;;;;;;;1.84;87.42;99243.41;1983694;81;20340;-72
2020/12/01 09:50:31;;;;;;;7.34;5.90;;;;;;;1.89;87.53;99244.38;1986684;80;20935;-71
2020/12/01 10:09:27;;;;;;;12.05;8.60;;;;;;;2.31;87.93;99234.41;1985829;81;20336;-71
2020/12/01 10:16:36;;;;;;;14.71;8.70;;;;;;;2.43;87.84;99238.16;1984211;81;20843;-71
2020/12/01 10:23:36;;;;;;;11.51;8.11;;;;;;;2.50;87.76;99240.84;1985870;81;20338;-71
2020/12/01 10:38:22;;;;;;;13.14;8.49;;;;;;;2.60;87.04;99248.84;1985837;81;20335;-71
2020/12/01 10:41:32;;;;;;;12.29;8.02;;;;;;;2.63;86.99;99235.22;1985844;81;20464;-71
2020/12/01 10:44:35;;;;;;;11.27;7.78;;;;;;;2.65;87.00;99239.53;1986012;81;20312;-70
2020/12/01 10:47:37;;;;;;;11.71;7.57;;;;;;;2.66;87.03;99232.72;1985536;81;20725;-70
2020/12/01 10:50:38;;;;;;;11.19;7.51;;;;;;;2.69;87.06;99240.47;1985971;81;20853;-71
2020/12/01 10:53:40;;;;;;;10.86;7.69;;;;;;;2.71;87.09;99233.72;1986083;81;20353;-71
2020/12/01 10:56:42;;;;;;;13.36;7.90;;;;;;;2.70;87.21;99230.28;1983876;80;21027;-70
2020/12/01 10:59:43;;;;;;;9.88;7.45;;;;;;;2.73;87.27;99237.19;1984265;81;20726;-71
2020/12/01 11:02:45;;;;;;;12.41;8.24;;;;;;;2.76;87.29;99234.69;1983867;81;20369;-70
2020/12/01 11:05:47;;;;;;;12.29;7.90;;;;;;;2.78;87.33;99233.03;1983430;81;20437;-71
2020/12/01 11:08:48;;;;;;;10.09;7.19;;;;;;;2.83;87.37;99236.56;1983298;81;20344;-71
2020/12/01 11:11:50;;;;;;;10.24;7.90;;;;;;;2.87;87.39;99230.69;1984149;81;20740;-72
2020/12/01 11:14:51;;;;;;;13.14;8.16;;;;;;;2.87;87.31;99228.13;1984124;81;20313;-73
2020/12/01 11:17:53;;;;;;;12.06;7.94;;;;;;;2.90;87.48;99224.78;1983269;81;20526;-73
2020/12/01 11:20:55;;;;;;;10.50;8.68;;;;;;;2.90;87.46;99219.66;1983384;81;20344;-74
2020/12/01 11:23:56;;;;;;;12.10;8.34;;;;;;;2.91;87.64;99229.06;1983237;81;20339;-73
2020/12/01 11:26:58;;;;;;;13.06;8.73;;;;;;;2.90;87.62;99230.75;1983671;81;20349;-74
2020/12/01 11:30:00;;;;;;;12.60;9.10;;;;;;;2.88;87.69;99231.56;1984039;80;20349;-73
2020/12/01 11:33:01;;;;;;;12.46;8.68;;;;;;;2.91;87.78;99231.63;1983593;81;20820;-73
2020/12/01 11:36:03;;;;;;;10.56;7.86;;;;;;;2.93;87.73;99229.97;1983039;81;20350;-73
2020/12/01 11:39:08;;;;;;;10.65;7.93;;;;;;;2.96;87.68;99219.78;1982989;81;20715;-73
2020/12/01 11:42:10;;;;;;;11.74;7.63;;;;;;;3.00;87.70;99229.25;1983597;81;20336;-72
2020/12/01 11:45:13;;;;;;;10.95;8.07;;;;;;;3.04;87.70;99228.50;1982561;80;20338;-73
2020/12/01 11:48:15;;;;;;;10.96;7.96;;;;;;;3.11;87.83;99225.25;1982574;81;21426;-74
2020/12/01 11:51:17;;;;;;;11.01;8.01;;;;;;;3.20;87.94;99233.13;1982708;81;21219;-72
2020/12/01 11:54:20;;;;;;;11.36;8.38;;;;;;;3.28;87.97;99223.94;1981591;81;20478;-74
2020/12/01 11:57:21;;;;;;;13.23;8.29;;;;;;;3.37;87.93;99227.50;1983250;81;20944;-74
2020/12/01 12:00:26;;;;;;;11.59;8.50;;;;;;;3.45;87.96;99229.44;1982928;81;21436;-74
2020/12/01 12:03:30;;;;;;;14.11;8.11;;;;;;;3.53;87.85;99227.88;1983182;81;20499;-74
2020/12/01 12:06:35;;;;;;;12.36;8.95;;;;;;;3.58;87.82;99233.09;1982751;81;20335;-74
2020/12/01 12:09:37;;;;;;;14.09;8.99;;;;;;;3.60;87.68;99232.31;1983113;81;20453;-74
2020/12/01 12:12:40;;;;;;;12.15;9.04;;;;;;;3.64;87.70;99228.09;1982593;81;20388;-74
2020/12/01 12:15:43;;;;;;;11.86;8.23;;;;;;;3.63;87.63;99227.25;1982470;81;20340;-73
2020/12/01 12:18:45;;;;;;;15.49;9.24;;;;;;;3.64;87.72;99226.41;1983142;81;20367;-76
2020/12/01 12:21:46;;;;;;;11.11;7.86;;;;;;;3.64;87.73;99226.41;1982494;81;21182;-74
2020/12/01 12:24:48;;;;;;;12.15;8.48;;;;;;;3.64;87.81;99226.41;1983072;81;20809;-74
2020/12/01 12:27:49;;;;;;;12.00;8.40;;;;;;;3.62;87.98;99220.38;1982804;81;20354;-75
2020/12/01 12:30:52;;;;;;;10.71;7.72;;;;;;;3.65;88.05;99222.13;1982470;81;20486;-72
2020/12/01 12:33:54;;;;;;;13.39;7.15;;;;;;;3.67;88.13;99217.91;1984145;81;20726;-73
2020/12/01 12:36:55;;;;;;;10.41;7.34;;;;;;;3.67;88.27;99225.59;1984390;81;20867;-71
2020/12/01 12:39:57;;;;;;;9.82;6.86;;;;;;;3.70;88.38;99229.94;1982147;81;20332;-72
2020/12/01 12:42:59;;;;;;;10.20;7.81;;;;;;;3.73;88.54;99230.84;1984623;81;20781;-72
2020/12/01 12:46:00;;;;;;;9.25;6.65;;;;;;;3.77;88.47;99232.66;1984191;81;20367;-71
2020/12/01 12:49:02;;;;;;;8.85;7.39;;;;;;;3.78;88.50;99230.97;1983669;81;20834;-73
2020/12/01 12:52:04;;;;;;;10.43;7.49;;;;;;;3.84;88.72;99233.63;1983837;81;20377;-73
2020/12/01 12:55:06;;;;;;;9.84;6.95;;;;;;;3.89;88.76;99229.44;1984139;81;20361;-72
2020/12/01 12:58:08;;;;;;;8.76;7.07;;;;;;;3.94;88.73;99227.81;1983977;81;21114;-72
2020/12/01 13:01:09;;;;;;;10.45;6.85;;;;;;;3.98;88.75;99223.66;1984618;80;21197;-72
2020/12/01 13:04:11;;;;;;;9.59;6.78;;;;;;;4.04;88.73;99226.31;1983739;81;20357;-71
2020/12/01 13:07:13;;;;;;;11.71;7.89;;;;;;;4.06;88.61;99229.78;1983678;80;20354;-72
2020/12/01 13:10:15;;;;;;;10.95;7.81;;;;;;;4.08;88.77;99228.97;1984253;81;20416;-72
2020/12/01 13:13:16;;;;;;;12.77;8.61;;;;;;;4.12;88.91;99228.19;1983947;81;20351;-74
2020/12/01 13:16:18;;;;;;;10.00;7.69;;;;;;;4.16;88.85;99234.25;1983545;81;20339;-72
2020/12/01 13:19:21;;;;;;;11.35;7.15;;;;;;;4.21;88.89;99223.22;1983980;81;20336;-72
2020/12/01 13:22:22;;;;;;;12.65;7.47;;;;;;;4.24;88.95;99228.41;1983187;81;20324;-71
2020/12/01 13:25:24;;;;;;;11.25;7.35;;;;;;;4.25;88.81;99235.28;1983876;81;20320;-72
2020/12/01 13:28:26;;;;;;;11.89;8.11;;;;;;;4.31;88.83;99238.78;1983319;81;20390;-71
2020/12/01 13:31:28;;;;;;;10.75;8.35;;;;;;;4.33;88.72;99238.00;1982707;81;20381;-72
2020/12/01 13:34:29;;;;;;;11.84;8.41;;;;;;;4.35;88.56;99238.91;1983048;81;20347;-71
2020/12/01 13:37:32;;;;;;;13.40;8.27;;;;;;;4.37;88.37;99236.34;1983398;81;20470;-71
2020/12/01 13:40:34;;;;;;;10.34;7.45;;;;;;;4.37;88.35;99232.06;1983372;81;20320;-71
2020/12/01 13:43:35;;;;;;;8.64;7.31;;;;;;;4.39;88.27;99238.09;1984082;81;20384;-71
2020/12/01 13:46:37;;;;;;;11.07;7.57;;;;;;;4.39;88.38;99238.09;1985924;81;20356;-71
2020/12/01 13:49:39;;;;;;;9.07;6.78;;;;;;;4.38;88.44;99238.94;1985690;81;20336;-70
2020/12/01 13:52:40;;;;;;;9.02;6.66;;;;;;;4.37;88.38;99236.34;1985410;81;20351;-71
2020/12/01 13:55:42;;;;;;;21.88;6.65;;;;;;;4.36;88.30;99242.34;1985586;81;20332;-71
2020/12/01 13:58:43;;;;;;;7.80;5.13;;;;;;;4.36;88.23;99237.19;1985977;80;20335;-71
2020/12/01 14:01:45;;;;;;;6.38;4.71;;;;;;;4.35;88.16;99246.59;1985998;81;20389;-70
2020/12/01 14:04:47;;;;;;;7.80;5.25;;;;;;;4.30;88.00;99245.63;1985858;81;20845;-70
2020/12/01 14:07:49;;;;;;;7.94;5.61;;;;;;;4.30;88.19;99247.34;1985800;81;20368;-70
2020/12/01 14:10:51;;;;;;;7.59;5.39;;;;;;;4.29;88.13;99248.19;1986008;81;20312;-70
2020/12/01 14:13:52;;;;;;;6.78;6.06;;;;;;;4.25;88.13;99240.41;1986444;81;20343;-71
2020/12/01 14:16:54;;;;;;;8.68;6.00;;;;;;;4.25;88.33;99244.69;1985018;81;20308;-71
2020/12/01 14:19:55;;;;;;;9.38;6.90;;;;;;;4.25;88.45;99245.56;1985873;81;20864;-70
2020/12/01 14:22:57;;;;;;;8.95;6.45;;;;;;;4.30;88.54;99248.22;1985426;80;20324;-70
2020/12/01 14:25:59;;;;;;;8.89;6.89;;;;;;;4.30;88.56;99244.78;1985609;80;20382;-71
2020/12/01 14:29:00;;;;;;;8.49;6.74;;;;;;;4.32;88.54;99248.25;1986058;81;20328;-70
2020/12/01 14:32:02;;;;;;;11.44;7.61;;;;;;;4.32;88.75;99248.25;1985908;81;20697;-71
2020/12/01 14:35:05;;;;;;;10.10;7.19;;;;;;;4.33;88.86;99248.28;1986396;81;20346;-71
2020/12/01 14:38:08;;;;;;;9.05;6.90;;;;;;;4.35;88.75;99246.59;1984723;81;20336;-71
2020/12/01 14:41:12;;;;;;;12.45;7.99;;;;;;;4.35;88.79;99245.75;1985065;81;20339;-71
2020/12/01 14:44:19;;;;;;;10.39;7.47;;;;;;;4.36;88.65;99252.63;1985056;81;20534;-72
2020/12/01 14:47:45;;;;;;;11.95;8.25;;;;;;;4.34;88.72;99256.88;1988545;81;20416;-72
2020/12/01 14:51:17;;;;;;;12.64;8.82;;;;;;;4.35;88.72;99254.31;1985276;81;20343;-72
2020/12/01 14:54:22;;;;;;;12.85;8.73;;;;;;;4.36;88.68;99261.19;1983596;81;20343;-71
2020/12/01 14:57:36;;;;;;;9.69;7.00;;;;;;;4.36;88.72;99255.19;1984425;81;20336;-71
2020/12/01 15:00:52;;;;;;;6.30;5.55;;;;;;;4.36;88.61;99265.47;1984208;81;20962;-72
2020/12/01 15:04:30;;;;;;;7.07;5.85;;;;;;;4.31;88.40;99264.50;1984274;81;20445;-72
2020/12/01 15:07:50;;;;;;;6.30;5.41;;;;;;;4.23;88.21;99265.22;1984689;81;20708;-72
2020/12/01 15:11:16;;;;;;;6.89;5.85;;;;;;;4.18;88.12;99266.00;1983497;81;20213;-72
2020/12/01 15:14:18;;;;;;;8.56;6.95;;;;;;;4.16;88.30;99272.81;1984565;81;20204;-72
2020/12/01 15:17:30;;;;;;;8.70;6.43;;;;;;;4.16;88.42;99278.81;1985640;81;20347;-71
2020/12/01 15:20:32;;;;;;;7.04;6.00;;;;;;;4.12;88.38;99269.28;1985580;81;20323;-71
2020/12/01 15:23:40;;;;;;;6.64;5.53;;;;;;;4.08;88.48;99276.91;1986082;81;20335;-71
2020/12/01 15:26:42;;;;;;;10.66;7.30;;;;;;;4.09;88.60;99279.50;1985370;81;20832;-71
2020/12/01 15:29:44;;;;;;;13.54;8.88;;;;;;;4.06;88.52;99284.59;1985775;81;20331;-72